.
WxDataArchive / Data Records for 2009-09-01
2009-08-31 September 2009 2009-09-02

Data Records for Tuesday, 01 September 2009

Time	Temp	Chill	HIndex	Humid	Dewpt	 Wind 	HiWind	WindDir	Rain 	Barom 
-----	----	-----	------	-----	-----	------	------	-------	-----	----- 
00:00	52.2	52.2	52.2	91	49.7	0	0	---	0.00	30.285 
00:05	52.0	52.0	52.0	91	49.5	0	0	---	0.00	30.285 
00:10	51.9	51.9	51.9	91	49.4	0	1	112	0.00	30.285 
00:15	51.9	51.9	51.9	91	49.4	0	0	---	0.00	30.286 
00:20	51.9	51.9	51.9	91	49.4	0	0	---	0.00	30.286 
00:25	51.9	51.9	51.9	92	49.6	0	0	---	0.00	30.286 
00:30	51.7	51.7	51.7	92	49.5	0	0	---	0.00	30.285 
00:35	51.6	51.6	51.6	92	49.4	0	0	---	0.00	30.285 
00:40	51.6	51.6	51.6	92	49.4	0	0	---	0.00	30.285 
00:45	51.4	51.4	51.4	92	49.2	0	0	---	0.00	30.288 
00:50	51.3	51.3	51.3	92	49.1	0	0	---	0.00	30.288 
00:55	51.3	51.3	51.3	92	49.1	0	0	---	0.00	30.288 
01:00	51.1	51.1	51.1	92	48.9	0	0	---	0.00	30.287 
01:05	51.1	51.1	51.1	93	49.1	0	0	---	0.00	30.287 
01:10	51.1	51.1	51.1	93	49.1	0	0	---	0.00	30.287 
01:15	51.1	51.1	51.1	93	49.1	0	0	---	0.00	30.294 
01:20	51.0	51.0	51.0	93	49.0	0	0	---	0.00	30.294 
01:25	51.0	51.0	51.0	93	49.0	0	0	---	0.00	30.294 
01:30	50.8	50.8	50.8	93	48.8	0	0	---	0.00	30.298 
01:35	50.8	50.8	50.8	93	48.8	0	0	---	0.00	30.298 
01:40	50.7	50.7	50.7	93	48.7	0	0	---	0.00	30.298 
01:45	50.7	50.7	50.7	93	48.7	0	0	---	0.00	30.299 
01:50	50.7	50.7	50.7	93	48.7	0	0	---	0.00	30.299 
01:55	50.7	50.7	50.7	93	48.7	0	0	---	0.00	30.299 
02:00	50.5	50.5	50.5	93	48.6	0	0	---	0.00	30.295 
02:05	50.5	50.5	50.5	93	48.6	0	0	---	0.00	30.295 
02:10	50.4	50.4	50.4	93	48.5	0	0	---	0.00	30.295 
02:15	50.4	50.4	50.4	93	48.5	0	0	---	0.00	30.288 
02:20	50.4	50.4	50.4	93	48.5	0	0	---	0.00	30.288 
02:25	50.4	50.4	50.4	93	48.5	0	0	---	0.00	30.288 
02:30	50.4	50.4	50.4	93	48.5	0	0	---	0.00	30.287 
02:35	50.5	50.5	50.5	93	48.6	0	0	---	0.00	30.287 
02:40	50.5	50.5	50.5	93	48.6	0	0	---	0.00	30.287 
02:45	50.5	50.5	50.5	93	48.6	0	0	---	0.00	30.286 
02:50	50.4	50.4	50.4	93	48.5	0	0	---	0.00	30.286 
02:55	50.4	50.4	50.4	93	48.5	0	0	---	0.00	30.286 
03:00	50.2	50.2	50.2	93	48.3	0	0	---	0.00	30.288 
03:05	50.2	50.2	50.2	93	48.3	0	0	---	0.00	30.288 
03:10	50.1	50.1	50.1	93	48.2	0	0	---	0.00	30.288 
03:15	50.1	50.1	50.1	93	48.2	0	0	---	0.00	30.289 
03:20	50.1	50.1	50.1	93	48.2	0	0	---	0.00	30.289 
03:25	49.9	49.9	49.9	93	48.0	0	0	---	0.00	30.289 
03:30	49.9	49.9	49.9	93	48.0	0	0	---	0.00	30.290 
03:35	49.8	49.8	49.8	93	47.9	0	0	---	0.00	30.290 
03:40	49.8	49.8	49.8	94	48.1	0	0	---	0.00	30.290 
03:45	49.8	49.8	49.8	94	48.1	0	0	---	0.00	30.290 
03:50	49.8	49.8	49.8	94	48.1	0	0	---	0.00	30.290 
03:55	49.8	49.8	49.8	94	48.1	0	0	---	0.00	30.290 
04:00	49.8	49.8	49.8	94	48.1	0	0	---	0.00	30.291 
04:05	49.8	49.8	49.8	94	48.1	0	0	---	0.00	30.291 
04:10	49.8	49.8	49.8	94	48.1	0	0	---	0.00	30.291 
04:15	49.6	49.6	49.6	94	47.9	0	0	---	0.00	30.297 
04:20	49.6	49.6	49.6	94	47.9	0	0	---	0.00	30.297 
04:25	49.8	49.8	49.8	94	48.1	0	0	---	0.00	30.297 
04:30	49.9	49.9	49.9	95	48.5	0	0	---	0.00	30.301 
04:35	50.1	50.1	50.1	95	48.7	0	0	---	0.00	30.301 
04:40	50.2	50.2	50.2	95	48.8	0	0	---	0.00	30.301 
04:45	50.7	50.7	50.7	95	49.3	0	0	---	0.00	30.301 
04:50	51.1	51.1	51.1	95	49.7	0	0	---	0.00	30.301 
04:55	51.4	51.4	51.4	95	50.0	0	0	---	0.00	30.301 
05:00	51.7	51.7	51.7	95	50.3	0	0	---	0.00	30.300 
05:05	52.0	52.0	52.0	95	50.6	0	0	---	0.00	30.300 
05:10	52.2	52.2	52.2	95	50.8	0	0	---	0.00	30.300 
05:15	52.2	52.2	52.2	95	50.8	0	0	---	0.00	30.299 
05:20	52.2	52.2	52.2	95	50.8	0	0	---	0.00	30.299 
05:25	52.2	52.2	52.2	95	50.8	0	0	---	0.00	30.299 
05:30	52.2	52.2	52.2	95	50.8	0	0	---	0.00	30.302 
05:35	52.0	52.0	52.0	95	50.6	0	0	---	0.00	30.302 
05:40	51.9	51.9	51.9	95	50.5	0	0	---	0.00	30.302 
05:45	51.7	51.7	51.7	95	50.3	0	0	---	0.00	30.302 
05:50	51.4	51.4	51.4	95	50.0	0	0	---	0.00	30.302 
05:55	51.3	51.3	51.3	94	49.6	0	0	---	0.00	30.302 
06:00	51.0	51.0	51.0	94	49.3	0	0	---	0.00	30.303 
06:05	50.8	50.8	50.8	94	49.1	0	0	---	0.00	30.303 
06:10	50.5	50.5	50.5	94	48.8	0	0	---	0.00	30.303 
06:15	50.4	50.4	50.4	94	48.7	0	0	---	0.00	30.309 
06:20	50.1	50.1	50.1	94	48.4	0	0	---	0.00	30.309 
06:25	49.9	49.9	49.9	94	48.2	0	0	---	0.00	30.309 
06:30	49.8	49.8	49.8	94	48.1	0	0	---	0.00	30.313 
06:35	49.6	49.6	49.6	94	47.9	0	0	---	0.00	30.313 
06:40	49.5	49.5	49.5	94	47.8	0	0	---	0.00	30.313 
06:45	49.4	49.4	49.4	94	47.7	0	0	---	0.00	30.316 
06:50	49.2	49.2	49.2	94	47.5	0	0	---	0.00	30.316 
06:55	48.9	48.9	48.9	94	47.2	0	0	---	0.00	30.316 
07:00	48.8	48.8	48.8	94	47.1	0	0	---	0.00	30.323 
07:05	48.6	48.6	48.6	94	47.0	0	0	---	0.00	30.323 
07:10	48.6	48.6	48.6	94	47.0	0	0	---	0.00	30.323 
07:15	48.5	48.5	48.5	94	46.9	0	0	---	0.00	30.326 
07:20	48.3	48.3	48.3	94	46.7	0	0	---	0.00	30.326 
07:25	48.3	48.3	48.3	94	46.7	0	0	---	0.00	30.326 
07:30	48.2	48.2	48.2	95	46.8	0	0	---	0.00	30.328 
07:35	48.2	48.2	48.2	95	46.8	0	0	---	0.00	30.328 
07:40	48.3	48.3	48.3	95	46.9	0	0	---	0.00	30.328 
07:45	48.5	48.5	48.5	95	47.1	0	0	---	0.00	30.333 
07:50	48.6	48.6	48.6	95	47.2	0	0	---	0.00	30.333 
07:55	48.8	48.8	48.8	95	47.4	0	0	---	0.00	30.333 
08:00	49.2	49.2	49.2	95	47.8	0	0	---	0.00	30.337 
08:05	49.8	49.8	49.8	96	48.7	0	0	---	0.00	30.337 
08:10	50.4	50.4	50.4	96	49.3	0	0	---	0.00	30.337 
08:15	51.0	51.0	51.0	96	49.9	0	0	---	0.00	30.344 
08:20	51.7	51.7	51.7	96	50.6	0	0	---	0.00	30.344 
08:25	52.5	52.5	52.5	96	51.4	0	0	---	0.00	30.344 
08:30	53.2	53.2	53.2	96	52.1	0	0	---	0.00	30.344 
08:35	53.9	53.9	53.9	95	52.5	0	1	112	0.00	30.344 
08:40	54.2	54.2	54.2	92	51.9	1	2	112	0.00	30.344 
08:45	54.4	54.4	54.4	88	50.9	0	2	112	0.00	30.352 
08:50	54.8	54.8	54.8	87	51.0	0	2	112	0.00	30.352 
08:55	55.4	55.4	55.4	87	51.6	0	2	112	0.00	30.352 
09:00	55.7	55.7	55.7	83	50.6	1	2	112	0.00	30.355 
09:05	56.3	56.3	56.3	80	50.2	1	4	112	0.00	30.355 
09:10	56.9	56.9	56.9	79	50.5	0	2	112	0.00	30.355 
09:15	57.3	57.3	57.3	79	50.8	0	2	112	0.00	30.355 
09:20	58.1	58.1	58.1	77	50.9	0	2	112	0.00	30.355 
09:25	58.7	58.7	58.7	76	51.2	0	1	112	0.00	30.355 
09:30	59.0	59.0	59.0	75	51.1	0	3	112	0.00	30.354 
09:35	59.3	59.3	59.3	73	50.6	1	2	112	0.00	30.354 
09:40	59.8	59.8	59.8	72	50.8	0	1	112	0.00	30.354 
09:45	60.1	60.1	60.1	69	49.9	0	3	112	0.00	30.355 
09:50	60.4	60.4	60.4	66	49.0	1	3	112	0.00	30.355 
09:55	60.7	60.7	60.7	65	48.9	1	3	112	0.00	30.355 
10:00	61.0	61.0	61.0	65	49.1	1	3	68	0.00	30.354 
10:05	61.5	61.5	61.5	65	49.6	1	4	90	0.00	30.354 
10:10	62.1	62.1	62.1	63	49.3	1	3	90	0.00	30.354 
10:15	63.1	63.1	63.1	62	49.9	1	3	90	0.00	30.354 
10:20	64.0	64.0	64.0	62	50.7	0	3	90	0.00	30.354 
10:25	65.0	65.0	65.0	57	49.4	0	2	90	0.00	30.354 
10:30	66.0	66.0	66.0	55	49.4	1	3	90	0.00	30.352 
10:35	66.1	66.1	66.1	51	47.4	2	6	68	0.00	30.352 
10:40	66.0	66.0	66.0	52	47.9	1	4	90	0.00	30.352 
10:45	66.4	66.4	66.4	50	47.2	2	5	68	0.00	30.352 
10:50	66.6	66.6	66.6	50	47.4	2	4	112	0.00	30.352 
10:55	66.8	66.8	66.8	49	47.0	1	7	90	0.00	30.352 
11:00	67.4	67.4	67.4	50	48.1	0	2	112	0.00	30.348 
11:05	67.8	67.8	67.8	48	47.4	2	5	90	0.00	30.348 
11:10	68.1	68.1	68.1	49	48.2	1	3	90	0.00	30.348 
11:15	68.3	68.3	68.3	52	50.0	2	6	90	0.00	30.351 
11:20	67.9	67.9	67.9	50	48.6	2	6	112	0.00	30.351 
11:25	67.8	67.8	67.8	50	48.5	2	6	90	0.00	30.351 
11:30	68.3	68.3	68.3	48	47.8	1	4	112	0.00	30.355 
11:35	68.6	68.6	68.6	50	49.2	1	4	112	0.00	30.355 
11:40	68.4	68.4	68.4	50	49.0	2	7	90	0.00	30.355 
11:45	68.4	68.4	68.4	53	50.6	1	4	112	0.00	30.355 
11:50	68.8	68.8	68.8	47	47.7	2	6	112	0.00	30.355 
11:55	68.6	68.6	68.6	50	49.2	2	4	90	0.00	30.355 
12:00	68.9	68.9	68.9	49	48.9	1	4	90	0.00	30.353 
12:05	68.8	68.8	68.8	48	48.3	2	7	90	0.00	30.353 
12:10	68.9	68.9	68.9	52	50.5	1	5	112	0.00	30.353 
12:15	69.1	69.1	69.1	48	48.6	3	7	90	0.00	30.356 
12:20	69.1	69.1	69.1	48	48.6	2	6	90	0.00	30.356 
12:25	68.4	68.4	68.4	46	46.8	4	11	90	0.00	30.356 
12:30	68.1	68.1	68.1	51	49.3	1	4	112	0.00	30.354 
12:35	68.4	68.4	68.4	48	47.9	3	6	90	0.00	30.354 
12:40	68.4	68.4	68.4	51	49.6	2	5	90	0.00	30.354 
12:45	68.1	68.1	68.1	49	48.2	2	7	90	0.00	30.354 
12:50	67.9	67.9	67.9	50	48.6	2	6	68	0.00	30.354 
12:55	67.6	67.6	67.6	50	48.3	2	5	90	0.00	30.354 
13:00	67.3	67.3	67.3	54	50.1	1	6	90	0.00	30.353 
13:05	67.4	67.4	67.4	51	48.6	0	2	90	0.00	30.353 
13:10	67.9	67.9	67.9	58	52.6	1	3	90	0.00	30.353 
13:15	69.1	69.1	69.1	50	49.7	2	5	90	0.00	30.350 
13:20	69.8	69.8	69.8	48	49.2	2	5	90	0.00	30.350 
13:25	69.8	69.8	69.8	47	48.6	2	6	90	0.00	30.350 
13:30	68.9	68.9	68.9	50	49.5	2	6	90	0.00	30.345 
13:35	69.1	69.1	69.1	48	48.6	2	5	90	0.00	30.345 
13:40	69.4	69.4	69.4	47	48.3	2	4	112	0.00	30.345 
13:45	69.4	69.4	69.4	50	49.9	2	5	90	0.00	30.336 
13:50	69.8	69.8	69.8	51	50.8	2	6	112	0.00	30.336 
13:55	69.9	69.9	69.9	47	48.7	2	5	90	0.00	30.336 
14:00	70.3	70.3	70.3	47	49.1	2	6	112	0.00	30.336 
14:05	70.1	70.1	70.1	45	47.8	2	7	90	0.00	30.336 
14:10	70.4	70.4	70.4	47	49.2	2	6	90	0.00	30.336 
14:15	70.4	70.4	70.4	46	48.6	1	4	90	0.00	30.334 
14:20	70.6	70.6	70.6	49	50.5	2	6	112	0.00	30.334 
14:25	70.9	70.9	70.9	47	49.7	2	5	112	0.00	30.334 
14:30	71.1	71.1	71.1	44	48.1	2	4	90	0.00	30.329 
14:35	70.9	70.9	70.9	45	48.5	1	6	112	0.00	30.329 
14:40	71.1	71.1	71.1	47	49.8	1	5	112	0.00	30.329 
14:45	71.1	71.1	71.1	48	50.4	2	5	112	0.00	30.325 
14:50	71.1	71.1	71.1	50	51.5	1	4	112	0.00	30.325 
14:55	70.8	70.8	70.8	46	49.0	2	7	90	0.00	30.325 
15:00	70.8	70.8	70.8	45	48.4	2	4	90	0.00	30.327 
15:05	70.9	70.9	70.9	46	49.1	1	3	112	0.00	30.327 
15:10	70.8	70.8	70.8	45	48.4	2	5	90	0.00	30.327 
15:15	71.1	71.1	71.1	50	51.5	0	3	270	0.00	30.318 
15:20	71.3	71.3	71.3	47	50.0	1	5	90	0.00	30.318 
15:25	70.9	70.9	70.9	48	50.2	1	3	90	0.00	30.318 
15:30	70.9	70.9	70.9	50	51.3	0	1	90	0.00	30.317 
15:35	71.5	71.5	71.5	48	50.8	0	2	90	0.00	30.317 
15:40	72.0	72.0	72.0	49	51.8	1	3	90	0.00	30.317 
15:45	71.8	71.8	71.8	46	49.9	2	6	90	0.00	30.308 
15:50	71.6	71.6	71.6	47	50.3	2	6	90	0.00	30.308 
15:55	71.6	71.6	71.6	46	49.7	1	7	90	0.00	30.308 
16:00	71.5	71.5	71.5	46	49.6	2	5	90	0.00	30.302 
16:05	71.3	71.3	71.3	46	49.4	2	5	112	0.00	30.302 
16:10	71.5	71.5	71.5	48	50.8	1	3	112	0.00	30.302 
16:15	71.6	71.6	71.6	49	51.4	0	3	112	0.00	30.298 
16:20	71.8	71.8	71.8	48	51.0	0	3	112	0.00	30.298 
16:25	72.1	72.1	72.1	50	52.4	1	4	112	0.00	30.298 
16:30	72.1	72.1	72.1	46	50.2	1	3	112	0.00	30.286 
16:35	71.6	71.6	71.6	48	50.9	2	7	68	0.00	30.286 
16:40	71.6	71.6	71.6	47	50.3	0	3	135	0.00	30.286 
16:45	71.6	71.6	71.6	49	51.4	1	4	112	0.00	30.285 
16:50	71.3	71.3	71.3	46	49.4	2	5	90	0.00	30.285 
16:55	70.9	70.9	70.9	47	49.7	1	4	90	0.00	30.285 
17:00	70.9	70.9	70.9	49	50.8	2	5	90	0.00	30.285 
17:05	70.9	70.9	70.9	47	49.7	1	4	90	0.00	30.285 
17:10	70.9	70.9	70.9	49	50.8	1	2	90	0.00	30.285 
17:15	70.9	70.9	70.9	50	51.3	1	4	112	0.00	30.285 
17:20	70.8	70.8	70.8	48	50.1	2	4	112	0.00	30.285 
17:25	70.4	70.4	70.4	46	48.6	1	3	112	0.00	30.285 
17:30	70.4	70.4	70.4	46	48.6	1	4	112	0.00	30.285 
17:35	70.4	70.4	70.4	46	48.6	1	4	90	0.00	30.285 
17:40	70.4	70.4	70.4	47	49.2	1	4	45	0.00	30.285 
17:45	70.3	70.3	70.3	48	49.7	1	4	112	0.00	30.281 
17:50	70.3	70.3	70.3	47	49.1	1	4	90	0.00	30.281 
17:55	70.3	70.3	70.3	50	50.8	1	4	112	0.00	30.281 
18:00	70.3	70.3	70.3	49	50.2	1	6	135	0.00	30.274 
18:05	70.1	70.1	70.1	49	50.0	1	4	112	0.00	30.274 
18:10	69.9	69.9	69.9	49	49.9	1	5	112	0.00	30.274 
18:15	69.8	69.8	69.8	49	49.8	1	3	90	0.00	30.276 
18:20	69.6	69.6	69.6	49	49.6	1	3	90	0.00	30.276 
18:25	69.4	69.4	69.4	50	49.9	1	4	90	0.00	30.276 
18:30	69.4	69.4	69.4	50	49.9	0	1	68	0.00	30.275 
18:35	69.3	69.3	69.3	51	50.4	1	2	68	0.00	30.275 
18:40	69.1	69.1	69.1	51	50.2	1	3	90	0.00	30.275 
18:45	68.9	68.9	68.9	51	50.0	1	3	90	0.00	30.274 
18:50	68.8	68.8	68.8	53	51.0	0	2	90	0.00	30.274 
18:55	68.6	68.6	68.6	53	50.8	0	1	90	0.00	30.274 
19:00	68.4	68.4	68.4	52	50.1	0	2	90	0.00	30.275 
19:05	68.3	68.3	68.3	53	50.5	0	3	90	0.00	30.275 
19:10	68.1	68.1	68.1	53	50.3	0	2	90	0.00	30.275 
19:15	68.1	68.1	68.1	55	51.3	0	1	90	0.00	30.276 
19:20	67.9	67.9	67.9	55	51.1	0	1	90	0.00	30.276 
19:25	67.6	67.6	67.6	56	51.3	0	3	90	0.00	30.276 
19:30	67.4	67.4	67.4	56	51.1	0	1	90	0.00	30.275 
19:35	67.3	67.3	67.3	57	51.5	0	1	90	0.00	30.275 
19:40	66.9	66.9	66.9	58	51.6	0	0	---	0.00	30.275 
19:45	66.8	66.8	66.8	57	51.1	0	0	---	0.00	30.275 
19:50	66.4	66.4	66.4	58	51.2	0	1	90	0.00	30.275 
19:55	66.1	66.1	66.1	58	50.9	0	0	---	0.00	30.275 
20:00	65.8	65.8	65.8	59	51.1	0	0	---	0.00	30.276 
20:05	65.3	65.3	65.3	59	50.6	0	0	---	0.00	30.276 
20:10	65.0	65.0	65.0	60	50.8	0	0	---	0.00	30.276 
20:15	64.5	64.5	64.5	62	51.2	0	0	---	0.00	30.272 
20:20	64.0	64.0	64.0	63	51.1	0	0	---	0.00	30.272 
20:25	63.7	63.7	63.7	63	50.9	0	0	---	0.00	30.272 
20:30	63.2	63.2	63.2	64	50.8	0	0	---	0.00	30.274 
20:35	62.9	62.9	62.9	65	50.9	0	0	---	0.00	30.274 
20:40	62.4	62.4	62.4	67	51.3	0	0	---	0.00	30.274 
20:45	62.1	62.1	62.1	68	51.4	0	0	---	0.00	30.277 
20:50	61.6	61.6	61.6	69	51.3	0	0	---	0.00	30.277 
20:55	61.3	61.3	61.3	70	51.4	0	0	---	0.00	30.277 
21:00	61.0	61.0	61.0	71	51.5	0	0	---	0.00	30.281 
21:05	60.7	60.7	60.7	72	51.6	0	0	---	0.00	30.281 
21:10	60.4	60.4	60.4	73	51.7	0	0	---	0.00	30.281 
21:15	60.1	60.1	60.1	74	51.8	0	0	---	0.00	30.278 
21:20	59.8	59.8	59.8	74	51.5	0	0	---	0.00	30.278 
21:25	59.6	59.6	59.6	75	51.7	0	0	---	0.00	30.278 
21:30	59.3	59.3	59.3	76	51.7	0	0	---	0.00	30.284 
21:35	59.2	59.2	59.2	76	51.6	0	0	---	0.00	30.284 
21:40	58.9	58.9	58.9	77	51.7	0	0	---	0.00	30.284 
21:45	58.7	58.7	58.7	77	51.5	0	0	---	0.00	30.284 
21:50	58.6	58.6	58.6	78	51.8	0	0	---	0.00	30.284 
21:55	58.4	58.4	58.4	78	51.6	0	0	---	0.00	30.284 
22:00	58.3	58.3	58.3	79	51.8	0	0	---	0.00	30.287 
22:05	58.1	58.1	58.1	79	51.6	0	0	---	0.00	30.287 
22:10	58.0	58.0	58.0	80	51.9	0	0	---	0.00	30.287 
22:15	58.1	58.1	58.1	79	51.6	0	1	90	0.00	30.284 
22:20	58.4	58.4	58.4	77	51.2	0	2	90	0.00	30.284 
22:25	59.0	59.0	59.0	76	51.4	0	1	90	0.00	30.284 
22:30	59.5	59.5	59.5	74	51.2	0	1	90	0.00	30.283 
22:35	59.6	59.6	59.6	74	51.3	0	1	90	0.00	30.283 
22:40	59.6	59.6	59.6	74	51.3	0	1	90	0.00	30.283 
22:45	59.5	59.5	59.5	74	51.2	0	1	90	0.00	30.284 
22:50	59.3	59.3	59.3	74	51.0	0	1	90	0.00	30.284 
22:55	59.2	59.2	59.2	74	50.9	0	1	90	0.00	30.284 
23:00	59.0	59.0	59.0	75	51.1	0	1	90	0.00	30.286 
23:05	58.7	58.7	58.7	75	50.8	0	0	---	0.00	30.286 
23:10	58.4	58.4	58.4	76	50.9	0	0	---	0.00	30.286 
23:15	58.0	58.0	58.0	76	50.5	0	0	---	0.00	30.285 
23:20	57.6	57.6	57.6	77	50.4	0	0	---	0.00	30.285 
23:25	57.2	57.2	57.2	77	50.1	0	0	---	0.00	30.285 
23:30	56.9	56.9	56.9	77	49.8	0	0	---	0.00	30.284 
23:35	56.5	56.5	56.5	77	49.4	0	0	---	0.00	30.284 
23:40	56.2	56.2	56.2	78	49.4	0	0	---	0.00	30.284 
23:45	55.9	55.9	55.9	78	49.1	0	0	---	0.00	30.287 
23:50	55.6	55.6	55.6	79	49.2	0	0	---	0.00	30.287 
23:55	55.1	55.1	55.1	80	49.0	0	0	---	0.00	30.287 

CoCoRaHS
IN-AL-39
A2 Web Hosting
Creative Commons License
GoDaddy
search engine by freefind advanced

loaded 2018-11-22 05:30:37 • last modified 2010-11-18 10:43:29
Privacy PolicyDisclaimer
• wx.awcolley.com is powered by PmWiki v.2002016 •
• all content (unless otherwise noted) © 2018 A W Colley